Time;durP1;ratioP1;P1;durP2;ratioP2;P2;SDS_P1;SDS_P2;PMS_P1;PMS_P2;Temp;Humidity;BMP_temperature;BMP_pressure;BME280_temperature;BME280_humidity;BME280_pressure;Samples;Min_cycle;Max_cycle;Signal;HPM_P1;HPM_P2
2021/12/11 00:00:14;;;;;;;8.33;5.63;;;16.00;53.60;;;;;;5005473;28;20448;-83
2021/12/11 00:02:43;;;;;;;7.77;5.50;;;16.00;53.70;;;;;;5001168;28;20468;-81
2021/12/11 00:05:12;;;;;;;7.90;5.60;;;16.00;53.60;;;;;;5013187;28;20448;-83
2021/12/11 00:07:40;;;;;;;8.50;6.13;;;16.00;53.70;;;;;;4999677;28;20454;-83
2021/12/11 00:10:12;;;;;;;10.83;6.23;;;16.00;53.60;;;;;;5000271;28;20519;-83
2021/12/11 00:12:44;;;;;;;10.50;5.93;;;16.00;53.80;;;;;;5008811;28;20496;-82
2021/12/11 00:15:14;;;;;;;8.33;5.40;;;16.00;53.80;;;;;;5002997;28;20452;-84
2021/12/11 00:17:42;;;;;;;7.87;5.77;;;16.00;53.70;;;;;;5012829;28;20945;-83
2021/12/11 00:20:16;;;;;;;8.37;6.00;;;16.00;53.70;;;;;;5006056;28;20465;-82
2021/12/11 00:22:44;;;;;;;7.30;5.87;;;16.00;54.00;;;;;;4996320;28;20541;-82
2021/12/11 00:25:14;;;;;;;8.13;5.87;;;16.00;53.70;;;;;;5007565;28;20456;-82
2021/12/11 00:27:45;;;;;;;9.57;5.50;;;16.00;53.90;;;;;;5012693;28;20460;-82
2021/12/11 00:30:21;;;;;;;7.93;5.70;;;16.00;53.90;;;;;;5006848;28;20518;-81
2021/12/11 00:32:49;;;;;;;5.50;4.33;;;16.00;53.80;;;;;;5003605;28;20520;-82
2021/12/11 00:35:20;;;;;;;8.17;5.70;;;16.00;53.90;;;;;;5007897;28;20456;-82
2021/12/11 00:37:48;;;;;;;6.53;5.80;;;16.00;54.00;;;;;;5014030;28;20456;-81
2021/12/11 00:40:19;;;;;;;12.00;5.67;;;16.00;54.00;;;;;;5006108;28;20481;-82
2021/12/11 00:42:48;;;;;;;9.80;5.90;;;16.00;53.90;;;;;;5006526;28;20453;-82
2021/12/11 00:45:19;;;;;;;9.83;5.63;;;16.00;53.80;;;;;;5003975;28;20939;-83
2021/12/11 00:47:50;;;;;;;11.07;5.77;;;15.90;53.80;;;;;;5008971;28;20479;-84
2021/12/11 00:50:20;;;;;;;6.73;5.07;;;15.90;53.90;;;;;;5008745;28;20445;-83
2021/12/11 00:52:49;;;;;;;7.33;5.33;;;15.90;53.90;;;;;;5013956;28;20504;-83
2021/12/11 00:55:21;;;;;;;8.47;5.50;;;15.90;54.00;;;;;;5007871;28;20477;-84
2021/12/11 00:57:50;;;;;;;8.17;5.53;;;15.90;54.00;;;;;;5011682;28;20460;-83
2021/12/11 01:00:20;;;;;;;8.10;5.80;;;15.90;53.80;;;;;;5010759;28;20484;-82
2021/12/11 01:02:51;;;;;;;10.10;5.97;;;15.90;54.00;;;;;;5011429;28;20521;-83
2021/12/11 01:05:20;;;;;;;8.73;5.70;;;15.90;54.00;;;;;;5009182;28;20456;-83
2021/12/11 01:07:48;;;;;;;9.23;5.67;;;15.90;54.00;;;;;;5014191;28;20468;-83
2021/12/11 01:10:21;;;;;;;6.57;5.30;;;15.90;53.90;;;;;;5003616;28;20549;-83
2021/12/11 01:12:56;;;;;;;6.97;5.70;;;15.90;54.00;;;;;;5013782;28;20455;-82
2021/12/11 01:15:26;;;;;;;9.87;6.33;;;15.90;54.00;;;;;;5007894;28;20455;-83
2021/12/11 01:18:03;;;;;;;8.07;6.00;;;15.90;54.00;;;;;;5014792;28;20555;-83
2021/12/11 01:20:49;;;;;;;8.10;5.50;;;15.90;54.00;;;;;;5008598;28;20494;-83
2021/12/11 01:23:29;;;;;;;8.47;6.30;;;15.90;53.90;;;;;;5014127;28;20492;-83
2021/12/11 01:25:57;;;;;;;8.00;5.20;;;15.90;53.90;;;;;;5017946;28;20485;-83
2021/12/11 01:28:27;;;;;;;10.30;6.33;;;15.90;53.90;;;;;;5009683;28;20514;-84
2021/12/11 01:30:55;;;;;;;9.50;5.80;;;15.90;54.00;;;;;;5007877;28;20537;-85
2021/12/11 01:33:23;;;;;;;10.07;6.17;;;15.90;53.90;;;;;;5009739;28;20467;-85
2021/12/11 01:35:51;;;;;;;7.83;5.70;;;15.90;53.90;;;;;;5010732;28;20480;-85
2021/12/11 01:38:21;;;;;;;10.33;6.17;;;15.90;53.90;;;;;;5008529;28;21011;-84
2021/12/11 01:40:51;;;;;;;8.50;5.90;;;15.90;54.00;;;;;;5004923;28;20456;-85
2021/12/11 01:43:21;;;;;;;11.03;6.77;;;15.90;54.00;;;;;;5006495;28;20498;-84
2021/12/11 01:45:51;;;;;;;8.90;5.57;;;15.80;53.90;;;;;;5005811;28;20452;-83
2021/12/11 01:48:20;;;;;;;8.57;6.10;;;15.80;53.90;;;;;;5021719;28;20439;-83
2021/12/11 01:50:54;;;;;;;8.80;6.27;;;15.80;54.00;;;;;;5014362;28;20503;-84
2021/12/11 01:53:24;;;;;;;8.03;5.93;;;15.80;53.90;;;;;;5028003;28;20447;-83
2021/12/11 01:55:54;;;;;;;8.93;6.17;;;15.80;53.90;;;;;;5012104;28;20484;-84
2021/12/11 01:58:24;;;;;;;8.73;6.27;;;15.80;53.70;;;;;;5011723;28;20947;-84
2021/12/11 02:00:57;;;;;;;8.23;6.00;;;15.80;53.80;;;;;;5015856;28;20457;-83
2021/12/11 02:03:27;;;;;;;9.13;6.63;;;15.80;53.80;;;;;;5015570;28;20453;-83
2021/12/11 02:05:55;;;;;;;10.97;6.23;;;15.80;53.80;;;;;;5016327;28;20536;-83
2021/12/11 02:08:28;;;;;;;8.50;6.17;;;15.70;53.80;;;;;;5016898;28;20467;-83
2021/12/11 02:10:57;;;;;;;7.97;6.10;;;15.70;53.80;;;;;;5016122;28;20429;-83
2021/12/11 02:13:37;;;;;;;10.53;6.03;;;15.70;54.40;;;;;;5015190;28;20528;-83
2021/12/11 02:16:07;;;;;;;9.60;6.30;;;15.60;53.80;;;;;;5015450;28;20447;-83
2021/12/11 02:18:43;;;;;;;10.80;6.17;;;15.60;53.70;;;;;;5015523;28;20473;-83
2021/12/11 02:21:12;;;;;;;9.30;6.30;;;15.60;53.80;;;;;;5016196;28;20452;-83
2021/12/11 02:23:42;;;;;;;10.10;6.33;;;15.50;53.80;;;;;;5015329;28;20456;-83
2021/12/11 02:26:12;;;;;;;9.67;6.30;;;15.60;53.80;;;;;;5013985;28;20452;-83
2021/12/11 02:28:42;;;;;;;8.20;6.17;;;15.50;53.70;;;;;;5015669;28;20459;-83
2021/12/11 02:31:15;;;;;;;7.43;5.70;;;15.50;53.70;;;;;;5013121;28;20459;-83
2021/12/11 02:33:44;;;;;;;8.47;5.50;;;15.50;53.70;;;;;;5015517;28;20475;-83
2021/12/11 02:36:14;;;;;;;7.93;5.90;;;15.50;53.60;;;;;;5015295;28;20484;-83
2021/12/11 02:38:46;;;;;;;9.83;6.10;;;15.50;53.70;;;;;;5015828;28;20437;-83
2021/12/11 02:41:19;;;;;;;11.17;6.03;;;15.50;53.70;;;;;;5015463;28;20474;-82
2021/12/11 02:43:49;;;;;;;7.20;5.77;;;15.50;53.80;;;;;;5015594;28;20453;-83
2021/12/11 02:46:19;;;;;;;8.03;6.03;;;15.50;53.60;;;;;;5013786;28;20460;-83
2021/12/11 02:48:49;;;;;;;7.30;5.30;;;15.50;53.60;;;;;;5012948;28;20479;-83
2021/12/11 02:51:20;;;;;;;8.33;5.50;;;15.50;53.60;;;;;;5016295;28;20432;-83
2021/12/11 02:53:52;;;;;;;10.50;6.53;;;15.50;53.60;;;;;;5012794;28;20487;-83
2021/12/11 02:56:22;;;;;;;8.53;6.43;;;15.50;53.70;;;;;;5015914;28;20951;-82
2021/12/11 02:58:53;;;;;;;8.67;6.60;;;15.50;53.60;;;;;;5013389;28;20464;-83
2021/12/11 03:01:25;;;;;;;11.60;6.87;;;15.50;53.80;;;;;;5016404;28;20938;-83
2021/12/11 03:04:01;;;;;;;8.77;6.30;;;15.50;53.60;;;;;;5015275;28;20468;-83
2021/12/11 03:06:37;;;;;;;10.90;6.60;;;15.50;53.70;;;;;;5011585;28;20535;-83
2021/12/11 03:09:06;;;;;;;9.20;6.73;;;15.50;53.70;;;;;;4995849;28;20444;-81
2021/12/11 03:11:34;;;;;;;8.30;6.13;;;15.50;53.80;;;;;;4993765;28;20483;-81
2021/12/11 03:14:03;;;;;;;8.20;6.10;;;15.50;53.70;;;;;;5012487;28;20468;-81
2021/12/11 03:16:33;;;;;;;6.77;5.40;;;15.50;53.60;;;;;;5010899;28;20460;-81
2021/12/11 03:19:02;;;;;;;8.93;6.00;;;15.50;53.60;;;;;;5009096;28;20444;-81
2021/12/11 03:21:30;;;;;;;9.37;6.43;;;15.50;53.70;;;;;;5047132;28;20492;-81
2021/12/11 03:23:58;;;;;;;11.33;6.60;;;15.40;53.60;;;;;;5011727;28;20480;-81
2021/12/11 03:26:28;;;;;;;7.57;5.93;;;15.40;53.60;;;;;;5012507;28;20479;-81
2021/12/11 03:28:56;;;;;;;6.80;5.43;;;15.40;53.70;;;;;;5013698;28;20528;-81
2021/12/11 03:31:24;;;;;;;8.13;6.10;;;15.50;53.60;;;;;;5013593;28;20499;-81
2021/12/11 03:33:55;;;;;;;8.60;6.20;;;15.50;53.60;;;;;;5013699;28;20508;-81
2021/12/11 03:36:23;;;;;;;6.97;5.73;;;15.40;53.60;;;;;;5013323;28;20480;-81
2021/12/11 03:38:53;;;;;;;10.17;6.47;;;15.50;53.80;;;;;;5010020;28;20460;-81
2021/12/11 03:41:21;;;;;;;7.67;5.47;;;15.50;53.70;;;;;;5007112;28;20472;-82
2021/12/11 03:43:50;;;;;;;8.10;6.10;;;15.40;53.50;;;;;;5002208;28;20462;-82
2021/12/11 03:46:18;;;;;;;7.60;6.07;;;15.40;53.60;;;;;;4992850;28;20868;-82
2021/12/11 03:48:48;;;;;;;8.77;5.90;;;15.50;53.60;;;;;;5010557;28;20464;-83
2021/12/11 03:51:17;;;;;;;8.80;6.13;;;15.40;53.50;;;;;;4992247;28;20549;-81
2021/12/11 03:53:46;;;;;;;11.53;6.90;;;15.40;53.60;;;;;;4991900;28;20564;-81
2021/12/11 03:56:14;;;;;;;7.90;5.90;;;15.40;53.50;;;;;;4997351;28;20499;-82
2021/12/11 03:58:49;;;;;;;8.37;6.07;;;15.40;53.40;;;;;;5011499;28;20916;-81
2021/12/11 04:01:22;;;;;;;10.40;6.73;;;15.40;53.60;;;;;;5011133;28;20527;-83
2021/12/11 04:03:51;;;;;;;9.40;6.50;;;15.40;53.60;;;;;;5012029;28;20519;-81
2021/12/11 04:06:19;;;;;;;9.83;6.70;;;15.40;53.60;;;;;;5011862;28;21016;-81
2021/12/11 04:08:47;;;;;;;9.30;6.50;;;15.30;53.50;;;;;;5012021;28;20436;-81
2021/12/11 04:11:16;;;;;;;7.57;5.40;;;15.30;53.60;;;;;;5011743;28;20444;-81
2021/12/11 04:13:45;;;;;;;8.40;6.10;;;15.30;53.50;;;;;;5010177;28;20512;-81
2021/12/11 04:16:13;;;;;;;9.40;6.60;;;15.30;53.40;;;;;;5010932;28;20523;-81
2021/12/11 04:18:45;;;;;;;9.43;6.37;;;15.30;53.50;;;;;;5011294;28;20463;-81
2021/12/11 04:21:13;;;;;;;10.40;7.37;;;15.30;53.40;;;;;;5011693;28;20496;-81
2021/12/11 04:23:41;;;;;;;10.83;6.67;;;15.20;53.40;;;;;;5014060;28;20460;-81
2021/12/11 04:26:09;;;;;;;7.33;6.10;;;15.20;53.40;;;;;;5015060;28;20439;-81
2021/12/11 04:28:39;;;;;;;8.10;6.27;;;15.10;53.30;;;;;;5015097;28;20531;-81
2021/12/11 04:31:09;;;;;;;10.00;6.90;;;15.10;53.20;;;;;;5013343;28;20464;-81
2021/12/11 04:33:40;;;;;;;9.07;6.10;;;15.10;53.30;;;;;;5014762;28;20541;-81
2021/12/11 04:36:11;;;;;;;10.00;6.00;;;15.10;53.20;;;;;;5015639;28;20588;-82
2021/12/11 04:38:40;;;;;;;8.13;6.03;;;15.00;53.10;;;;;;5023190;28;20523;-81
2021/12/11 04:41:08;;;;;;;8.00;6.13;;;15.10;53.30;;;;;;5026555;28;20429;-80
2021/12/11 04:43:36;;;;;;;10.77;7.20;;;15.10;53.20;;;;;;5023523;28;20544;-81
2021/12/11 04:46:07;;;;;;;8.87;6.20;;;15.00;53.20;;;;;;5017740;28;20472;-81
2021/12/11 04:48:42;;;;;;;8.60;6.10;;;15.00;53.20;;;;;;5010767;28;20460;-81
2021/12/11 04:51:19;;;;;;;8.23;5.97;;;15.00;53.20;;;;;;5007600;28;20468;-81
2021/12/11 04:53:57;;;;;;;8.20;6.13;;;15.00;53.20;;;;;;4996979;28;21022;-82
2021/12/11 04:57:01;;;;;;;8.17;6.30;;;15.00;53.20;;;;;;4995195;28;20524;-81
2021/12/11 04:59:45;;;;;;;8.53;6.30;;;15.10;53.20;;;;;;4994937;28;20528;-82
2021/12/11 05:02:47;;;;;;;9.10;6.63;;;15.10;53.20;;;;;;5009658;28;20484;-82
2021/12/11 05:05:23;;;;;;;9.83;5.93;;;15.00;53.10;;;;;;5004581;28;20478;-81
2021/12/11 05:08:12;;;;;;;8.47;6.20;;;15.00;53.10;;;;;;5012739;28;20528;-81
2021/12/11 05:10:50;;;;;;;10.00;6.63;;;15.00;53.30;;;;;;5013597;28;21026;-81
2021/12/11 05:13:18;;;;;;;8.97;6.43;;;15.00;53.30;;;;;;5014289;28;20503;-81
2021/12/11 05:15:47;;;;;;;7.90;5.80;;;15.00;53.20;;;;;;5013586;28;20465;-81
2021/12/11 05:18:18;;;;;;;8.83;6.43;;;15.00;53.20;;;;;;5014298;28;20428;-82
2021/12/11 05:20:47;;;;;;;9.67;6.07;;;15.00;53.10;;;;;;5014056;28;20460;-82
2021/12/11 05:23:17;;;;;;;8.60;5.83;;;14.90;53.00;;;;;;5011542;28;20484;-82
2021/12/11 05:25:45;;;;;;;9.43;6.10;;;14.90;53.00;;;;;;5014411;28;20461;-81
2021/12/11 05:28:13;;;;;;;9.30;6.07;;;14.90;53.10;;;;;;5013902;28;20535;-81
2021/12/11 05:30:43;;;;;;;8.93;6.23;;;14.90;53.10;;;;;;5014402;28;20448;-81
2021/12/11 05:33:10;;;;;;;10.53;6.47;;;14.90;53.00;;;;;;5013568;28;20508;-82
2021/12/11 05:35:39;;;;;;;8.80;6.20;;;14.80;52.90;;;;;;5014055;28;20475;-82
2021/12/11 05:38:08;;;;;;;9.80;6.27;;;14.80;53.00;;;;;;5013968;28;20446;-82
2021/12/11 05:40:38;;;;;;;11.30;6.60;;;14.80;53.00;;;;;;5009163;28;20543;-82
2021/12/11 05:43:06;;;;;;;8.80;6.00;;;14.80;52.80;;;;;;5006437;28;20445;-82
2021/12/11 05:45:34;;;;;;;10.10;6.53;;;14.80;52.70;;;;;;5013353;28;20535;-82
2021/12/11 05:48:02;;;;;;;10.27;6.60;;;14.80;52.60;;;;;;5013349;28;20437;-82
2021/12/11 05:50:32;;;;;;;8.73;6.33;;;14.70;52.60;;;;;;5013277;28;20548;-82
2021/12/11 05:53:00;;;;;;;8.23;6.33;;;14.70;52.60;;;;;;5013311;28;20491;-82
2021/12/11 05:55:29;;;;;;;8.60;6.00;;;14.70;52.60;;;;;;5011696;28;20586;-83
2021/12/11 05:58:00;;;;;;;8.27;5.87;;;14.60;52.50;;;;;;5012484;28;20535;-82
2021/12/11 06:00:30;;;;;;;9.77;6.37;;;14.60;52.40;;;;;;5013310;28;20444;-82
2021/12/11 06:02:59;;;;;;;8.80;6.27;;;14.60;52.40;;;;;;5013415;28;20483;-82
2021/12/11 06:05:27;;;;;;;10.13;6.10;;;14.60;52.40;;;;;;5013023;28;20979;-82
2021/12/11 06:07:55;;;;;;;8.10;6.10;;;14.60;52.30;;;;;;5012792;28;20468;-82
2021/12/11 06:10:24;;;;;;;9.27;6.20;;;14.50;52.10;;;;;;5012808;28;20500;-82
2021/12/11 06:12:53;;;;;;;9.50;6.20;;;14.50;52.30;;;;;;5008355;28;20508;-83
2021/12/11 06:15:23;;;;;;;10.03;6.87;;;14.50;52.20;;;;;;5013330;28;20432;-82
2021/12/11 06:17:51;;;;;;;10.03;7.07;;;14.50;52.10;;;;;;5013137;28;20473;-82
2021/12/11 06:20:21;;;;;;;10.97;6.97;;;14.50;52.00;;;;;;5013294;28;20496;-82
2021/12/11 06:22:49;;;;;;;10.50;6.93;;;14.50;52.20;;;;;;5013136;28;20892;-82
2021/12/11 06:25:18;;;;;;;10.63;6.57;;;14.50;51.90;;;;;;5013117;28;20476;-81
2021/12/11 06:27:46;;;;;;;10.17;7.03;;;14.40;51.90;;;;;;5009995;28;20528;-82
2021/12/11 06:30:14;;;;;;;10.13;6.70;;;14.40;51.80;;;;;;5012960;28;20523;-82
2021/12/11 06:32:43;;;;;;;6.20;5.40;;;14.40;52.00;;;;;;5012267;28;20476;-82
2021/12/11 06:35:13;;;;;;;7.80;6.10;;;14.40;51.80;;;;;;5009982;28;20507;-83
2021/12/11 06:37:48;;;;;;;9.47;6.17;;;14.30;51.80;;;;;;5015405;28;20445;-82
2021/12/11 06:40:17;;;;;;;9.27;6.20;;;14.30;51.70;;;;;;5015771;28;20472;-81
2021/12/11 06:42:45;;;;;;;9.60;6.73;;;14.30;51.70;;;;;;5015596;28;20469;-82
2021/12/11 06:45:13;;;;;;;11.03;6.50;;;14.30;51.70;;;;;;5012684;28;20494;-82
2021/12/11 06:47:42;;;;;;;8.00;6.00;;;14.30;51.70;;;;;;5015483;28;20440;-82
2021/12/11 06:50:10;;;;;;;8.70;6.30;;;14.20;51.60;;;;;;5015942;28;20448;-82
2021/12/11 06:52:39;;;;;;;9.50;6.17;;;14.20;51.50;;;;;;5016036;28;20469;-82
2021/12/11 06:55:11;;;;;;;9.70;6.43;;;14.30;51.70;;;;;;5015466;28;20468;-82
2021/12/11 06:57:40;;;;;;;8.30;5.40;;;14.20;51.50;;;;;;5016429;28;20455;-81
2021/12/11 07:00:09;;;;;;;9.87;6.53;;;14.20;51.60;;;;;;5011540;28;20452;-82
2021/12/11 07:02:37;;;;;;;9.57;6.50;;;14.20;51.60;;;;;;5015652;28;20540;-83
2021/12/11 07:05:07;;;;;;;9.13;6.20;;;14.20;51.60;;;;;;5015849;28;21035;-82
2021/12/11 07:07:37;;;;;;;8.67;6.60;;;14.10;51.50;;;;;;5016345;28;20444;-82
2021/12/11 07:10:06;;;;;;;9.47;6.17;;;14.10;51.50;;;;;;5015701;28;20444;-80
2021/12/11 07:12:34;;;;;;;10.47;6.40;;;14.10;51.40;;;;;;5014852;28;20433;-81
2021/12/11 07:15:02;;;;;;;7.93;5.60;;;14.10;51.40;;;;;;5014287;28;20586;-80
2021/12/11 07:17:30;;;;;;;8.60;6.13;;;14.10;51.30;;;;;;5010217;28;20458;-81
2021/12/11 07:19:58;;;;;;;7.43;5.50;;;14.10;51.40;;;;;;5014189;28;20456;-81
2021/12/11 07:22:27;;;;;;;9.83;6.57;;;14.10;51.40;;;;;;5015559;28;20460;-82
2021/12/11 07:24:57;;;;;;;7.80;5.23;;;14.10;51.40;;;;;;5014839;28;20421;-82
2021/12/11 07:27:26;;;;;;;11.37;6.37;;;14.10;51.40;;;;;;5016852;28;20456;-82
2021/12/11 07:29:53;;;;;;;8.57;5.80;;;14.10;51.40;;;;;;5017166;28;20469;-82
2021/12/11 07:32:22;;;;;;;7.67;6.00;;;14.10;51.20;;;;;;5018935;28;20444;-82
2021/12/11 07:34:49;;;;;;;15.73;7.50;;;14.10;51.10;;;;;;5016701;28;20563;-82
2021/12/11 07:37:17;;;;;;;9.27;6.90;;;14.10;51.00;;;;;;5018089;28;20466;-82
2021/12/11 07:39:47;;;;;;;11.27;6.93;;;14.10;50.80;;;;;;5016955;28;20436;-83
2021/12/11 07:42:15;;;;;;;8.97;6.97;;;14.10;50.80;;;;;;5015655;28;20475;-81
2021/12/11 07:44:43;;;;;;;10.43;6.93;;;14.10;50.80;;;;;;5015490;28;20437;-83
2021/12/11 07:47:11;;;;;;;10.67;6.70;;;14.10;50.80;;;;;;5016906;28;20483;-82
2021/12/11 07:49:39;;;;;;;10.50;6.80;;;14.10;50.60;;;;;;5015934;28;20449;-82
2021/12/11 07:52:07;;;;;;;10.40;6.90;;;14.10;50.70;;;;;;5013705;28;20491;-83
2021/12/11 07:54:35;;;;;;;11.47;6.97;;;14.10;50.50;;;;;;5016119;28;20469;-82
2021/12/11 07:57:05;;;;;;;10.57;7.20;;;14.10;50.60;;;;;;5018045;28;20440;-82
2021/12/11 07:59:33;;;;;;;13.27;8.40;;;14.10;50.50;;;;;;5018812;28;20453;-82
2021/12/11 08:02:01;;;;;;;11.27;7.90;;;14.10;50.40;;;;;;5019613;28;20474;-82
2021/12/11 08:04:29;;;;;;;11.03;7.10;;;14.10;50.30;;;;;;5019412;28;20560;-81
2021/12/11 08:06:58;;;;;;;9.10;6.60;;;14.10;50.40;;;;;;5018944;28;20489;-82
2021/12/11 08:09:25;;;;;;;11.53;8.03;;;14.00;50.60;;;;;;5016049;28;20488;-81
2021/12/11 08:11:54;;;;;;;10.13;7.37;;;14.10;50.70;;;;;;5019265;28;20467;-82
2021/12/11 08:14:24;;;;;;;11.30;7.80;;;14.10;50.70;;;;;;5021485;28;20525;-82
2021/12/11 08:16:54;;;;;;;10.63;6.83;;;14.10;50.80;;;;;;5021691;28;20432;-82
2021/12/11 08:19:25;;;;;;;11.17;7.37;;;14.20;51.00;;;;;;5021122;28;20540;-83
2021/12/11 08:21:53;;;;;;;9.90;6.93;;;14.10;51.00;;;;;;5020009;28;20474;-82
2021/12/11 08:24:22;;;;;;;9.97;6.70;;;14.20;51.00;;;;;;5019816;28;20840;-83
2021/12/11 08:26:50;;;;;;;10.53;7.20;;;14.20;51.10;;;;;;5017933;28;20464;-83
2021/12/11 08:29:19;;;;;;;10.67;7.40;;;14.20;51.20;;;;;;5019428;28;20469;-82
2021/12/11 08:31:49;;;;;;;13.73;7.30;;;14.20;51.20;;;;;;5019314;28;20482;-82
2021/12/11 08:34:18;;;;;;;10.30;6.47;;;14.30;51.30;;;;;;5027429;28;20471;-82
2021/12/11 08:36:46;;;;;;;9.63;6.40;;;14.30;51.30;;;;;;5020584;28;20452;-82
2021/12/11 08:39:15;;;;;;;11.60;7.27;;;14.30;51.40;;;;;;5005034;28;20441;-82
2021/12/11 08:41:44;;;;;;;13.53;7.20;;;14.30;51.60;;;;;;4999348;28;20463;-82
2021/12/11 08:44:14;;;;;;;10.00;6.47;;;14.40;51.60;;;;;;5001531;28;20497;-83
2021/12/11 08:46:46;;;;;;;8.83;6.70;;;14.40;51.60;;;;;;5018135;28;20441;-83
2021/12/11 08:49:17;;;;;;;10.87;7.00;;;14.40;51.70;;;;;;5019816;28;20453;-83
2021/12/11 08:51:48;;;;;;;11.03;7.00;;;14.40;51.60;;;;;;5019782;28;20424;-82
2021/12/11 08:54:17;;;;;;;11.73;7.27;;;14.50;51.70;;;;;;5019574;28;20472;-82
2021/12/11 08:56:45;;;;;;;9.27;6.83;;;14.50;51.80;;;;;;5019211;28;20468;-82
2021/12/11 08:59:15;;;;;;;8.30;6.13;;;14.50;51.80;;;;;;5018808;28;20457;-81
2021/12/11 09:01:46;;;;;;;10.80;6.27;;;14.60;51.70;;;;;;5017051;28;20504;-82
2021/12/11 09:04:17;;;;;;;10.00;6.70;;;14.60;51.70;;;;;;5017797;28;20826;-83
2021/12/11 09:06:46;;;;;;;10.43;6.33;;;14.60;51.80;;;;;;5016109;28;20441;-83
2021/12/11 09:09:17;;;;;;;9.60;6.63;;;14.60;51.80;;;;;;5014826;28;20475;-83
2021/12/11 09:11:47;;;;;;;9.67;6.20;;;14.60;51.80;;;;;;5015479;28;20472;-83
2021/12/11 09:14:17;;;;;;;12.33;6.60;;;14.70;51.90;;;;;;5015965;28;20492;-84
2021/12/11 09:16:47;;;;;;;9.20;6.30;;;14.70;51.80;;;;;;5015736;28;20469;-83
2021/12/11 09:19:18;;;;;;;9.97;6.30;;;14.70;51.80;;;;;;5010231;28;20452;-84
2021/12/11 09:21:49;;;;;;;8.07;6.47;;;14.70;51.90;;;;;;5015164;28;20436;-83
2021/12/11 09:24:22;;;;;;;13.70;6.57;;;14.90;51.90;;;;;;5015775;28;20559;-84
2021/12/11 09:26:53;;;;;;;9.63;6.50;;;14.90;51.80;;;;;;5015436;28;20468;-82
2021/12/11 09:29:23;;;;;;;10.43;6.97;;;15.00;51.90;;;;;;5020309;28;20459;-83
2021/12/11 09:31:59;;;;;;;12.37;6.30;;;15.10;52.50;;;;;;5019269;28;20454;-83
2021/12/11 09:34:30;;;;;;;9.23;6.37;;;15.20;51.70;;;;;;5017773;28;20491;-83
2021/12/11 09:37:01;;;;;;;12.23;6.70;;;15.30;51.80;;;;;;5017447;28;20476;-82
2021/12/11 09:39:32;;;;;;;9.43;7.10;;;15.40;51.70;;;;;;5018827;28;20472;-83
2021/12/11 09:42:00;;;;;;;11.53;7.00;;;15.40;51.80;;;;;;5019093;28;20452;-83
2021/12/11 09:44:31;;;;;;;8.90;6.20;;;15.50;51.80;;;;;;5019346;28;20475;-82
2021/12/11 09:47:08;;;;;;;11.53;6.70;;;15.60;51.90;;;;;;5019542;28;20437;-83
2021/12/11 09:49:38;;;;;;;7.97;6.33;;;15.80;52.00;;;;;;5019990;28;20480;-83
2021/12/11 09:52:16;;;;;;;8.83;6.67;;;16.00;52.10;;;;;;5018049;28;20535;-83
2021/12/11 09:54:49;;;;;;;8.87;6.77;;;16.20;52.20;;;;;;5016409;28;20445;-83
2021/12/11 09:57:18;;;;;;;8.10;6.40;;;16.40;52.20;;;;;;5016333;28;20525;-83
2021/12/11 09:59:49;;;;;;;11.00;7.10;;;16.70;52.20;;;;;;5014277;28;20471;-84
2021/12/11 10:02:19;;;;;;;10.37;6.63;;;17.00;52.10;;;;;;5015089;28;20472;-83
2021/12/11 10:04:58;;;;;;;9.70;6.10;;;17.20;52.00;;;;;;5014039;28;20556;-83
2021/12/11 10:07:31;;;;;;;14.07;6.60;;;17.50;51.80;;;;;;5014205;28;21015;-83
2021/12/11 10:10:09;;;;;;;7.10;5.70;;;17.80;51.70;;;;;;5013882;28;20506;-81
2021/12/11 10:12:38;;;;;;;12.80;6.47;;;18.00;51.50;;;;;;5015949;28;20440;-80
2021/12/11 10:15:11;;;;;;;8.40;6.60;;;18.20;51.50;;;;;;5015818;28;20448;-80
2021/12/11 10:17:42;;;;;;;7.43;5.80;;;18.50;51.50;;;;;;5012983;28;20532;-80
2021/12/11 10:20:12;;;;;;;6.03;5.40;;;18.70;51.50;;;;;;5013134;28;20468;-81
2021/12/11 10:22:41;;;;;;;8.13;6.20;;;18.90;51.40;;;;;;5015245;28;20479;-81
2021/12/11 10:25:12;;;;;;;8.87;6.47;;;19.20;51.60;;;;;;5017061;28;20449;-81
2021/12/11 10:27:40;;;;;;;7.27;6.07;;;19.50;51.50;;;;;;5016814;28;20456;-82
2021/12/11 10:30:10;;;;;;;7.93;6.47;;;19.80;51.60;;;;;;5017379;28;20467;-81
2021/12/11 10:32:39;;;;;;;11.13;6.73;;;20.10;51.50;;;;;;5017159;28;20552;-82
2021/12/11 10:35:09;;;;;;;11.03;5.70;;;20.10;51.10;;;;;;5014573;28;20536;-82
2021/12/11 10:37:38;;;;;;;10.07;5.83;;;20.20;51.20;;;;;;5014372;28;20503;-81
2021/12/11 10:40:08;;;;;;;7.77;5.67;;;20.40;51.40;;;;;;5013411;28;20543;-82
2021/12/11 10:42:36;;;;;;;6.67;5.70;;;20.50;51.20;;;;;;5013361;28;20486;-82
2021/12/11 10:45:06;;;;;;;7.30;5.70;;;20.70;51.20;;;;;;5005284;28;20893;-81
2021/12/11 10:47:37;;;;;;;6.23;5.33;;;20.70;51.10;;;;;;5013026;28;20464;-81
2021/12/11 10:50:15;;;;;;;10.97;6.33;;;20.80;51.00;;;;;;5012827;28;20459;-82
2021/12/11 10:52:43;;;;;;;6.57;5.87;;;20.70;50.80;;;;;;5012451;28;20453;-81
2021/12/11 10:55:13;;;;;;;7.57;5.60;;;20.60;50.90;;;;;;5012560;28;20455;-82
2021/12/11 10:57:41;;;;;;;7.70;5.20;;;20.50;51.00;;;;;;5008665;28;20559;-82
2021/12/11 11:00:12;;;;;;;6.03;4.90;;;20.40;51.00;;;;;;5013433;28;20440;-82
2021/12/11 11:02:43;;;;;;;6.67;5.20;;;20.30;51.20;;;;;;5012334;28;20525;-84
2021/12/11 11:05:14;;;;;;;7.23;5.20;;;20.20;51.40;;;;;;5019430;28;20445;-82
2021/12/11 11:07:43;;;;;;;5.30;4.80;;;20.00;51.40;;;;;;5021480;28;20460;-83
2021/12/11 11:10:12;;;;;;;6.40;5.13;;;20.00;51.60;;;;;;5020930;28;20454;-82
2021/12/11 11:12:40;;;;;;;5.80;5.27;;;19.90;51.60;;;;;;5016703;28;20468;-83
2021/12/11 11:15:09;;;;;;;5.50;4.50;;;19.80;51.70;;;;;;5011538;28;20457;-82
2021/12/11 11:17:37;;;;;;;6.50;4.70;;;19.80;51.90;;;;;;5015247;28;20543;-82
2021/12/11 11:20:10;;;;;;;8.43;4.93;;;19.80;52.00;;;;;;5015367;28;20444;-82
2021/12/11 11:22:40;;;;;;;8.17;5.40;;;19.70;52.00;;;;;;5011871;28;20449;-83
2021/12/11 11:25:09;;;;;;;6.20;5.13;;;19.70;52.00;;;;;;5013164;28;20482;-82
2021/12/11 11:27:38;;;;;;;7.20;4.80;;;19.70;52.00;;;;;;5013422;28;20501;-82
2021/12/11 11:30:07;;;;;;;6.37;4.80;;;19.60;52.00;;;;;;5017242;28;20486;-82
2021/12/11 11:32:35;;;;;;;9.27;5.37;;;19.60;52.10;;;;;;5014946;28;20928;-82
2021/12/11 11:35:05;;;;;;;5.40;4.90;;;19.50;52.00;;;;;;5013779;28;20444;-83
2021/12/11 11:37:46;;;;;;;5.60;5.10;;;19.50;52.20;;;;;;5017565;28;20563;-81
2021/12/11 11:40:17;;;;;;;5.77;5.17;;;19.40;52.10;;;;;;5018444;28;20445;-82
2021/12/11 11:42:45;;;;;;;6.10;4.77;;;19.40;52.20;;;;;;5013915;28;20494;-84
2021/12/11 11:45:13;;;;;;;7.63;5.23;;;19.40;52.20;;;;;;5011582;28;20456;-83
2021/12/11 11:47:42;;;;;;;8.63;5.20;;;19.50;52.30;;;;;;5006389;28;20453;-82
2021/12/11 11:50:11;;;;;;;7.67;4.90;;;19.70;52.30;;;;;;5011189;28;20436;-83
2021/12/11 11:52:41;;;;;;;6.77;5.20;;;19.70;52.00;;;;;;5011489;28;20488;-83
2021/12/11 11:55:12;;;;;;;5.63;4.57;;;19.80;52.10;;;;;;5011906;28;20550;-82
2021/12/11 11:57:41;;;;;;;8.40;5.30;;;19.90;52.20;;;;;;5011329;28;20541;-83
2021/12/11 12:00:11;;;;;;;8.17;4.90;;;20.00;51.80;;;;;;5010973;28;20504;-82
2021/12/11 12:02:40;;;;;;;6.60;4.93;;;19.90;51.60;;;;;;5011197;28;20492;-83
2021/12/11 12:05:08;;;;;;;4.70;4.20;;;19.80;52.20;;;;;;5009217;28;20476;-84
2021/12/11 12:07:36;;;;;;;9.07;5.10;;;19.70;51.60;;;;;;5011314;28;20464;-82
2021/12/11 12:10:09;;;;;;;5.47;4.17;;;19.60;51.70;;;;;;5011360;28;20429;-83
2021/12/11 12:12:38;;;;;;;5.27;4.63;;;19.60;51.90;;;;;;5010795;28;20425;-82
2021/12/11 12:15:08;;;;;;;5.00;4.43;;;19.60;52.00;;;;;;5003608;28;20432;-82
2021/12/11 12:17:36;;;;;;;6.30;4.60;;;19.50;51.90;;;;;;5011679;28;20472;-82
2021/12/11 12:20:05;;;;;;;6.87;4.60;;;19.50;51.90;;;;;;5011490;28;20456;-84
2021/12/11 12:22:33;;;;;;;5.37;3.90;;;19.40;51.90;;;;;;5006201;28;20452;-82
2021/12/11 12:25:02;;;;;;;5.77;4.90;;;19.30;51.90;;;;;;5011256;28;20471;-82
2021/12/11 12:27:32;;;;;;;5.97;4.30;;;19.20;52.00;;;;;;5011220;28;20439;-82
2021/12/11 12:30:03;;;;;;;6.90;4.80;;;19.20;52.00;;;;;;5011244;28;20448;-83
2021/12/11 12:32:32;;;;;;;5.43;4.40;;;19.20;52.10;;;;;;5011299;28;20439;-82
2021/12/11 12:35:02;;;;;;;6.30;4.40;;;19.10;52.00;;;;;;5010487;28;20468;-82
2021/12/11 12:37:30;;;;;;;4.50;4.03;;;19.10;52.10;;;;;;5010740;28;20522;-82
2021/12/11 12:40:00;;;;;;;6.63;4.70;;;19.00;52.00;;;;;;5005653;28;20469;-82
2021/12/11 12:42:34;;;;;;;4.80;4.27;;;19.00;52.20;;;;;;5011095;28;20444;-82
2021/12/11 12:45:06;;;;;;;5.37;4.63;;;19.00;52.80;;;;;;5013973;28;20413;-82
2021/12/11 12:47:35;;;;;;;4.60;4.03;;;19.00;52.10;;;;;;5014796;28;20500;-82
2021/12/11 12:50:06;;;;;;;5.10;4.60;;;19.10;52.10;;;;;;5018901;28;20479;-82
2021/12/11 12:52:35;;;;;;;7.67;4.87;;;19.20;52.00;;;;;;5018799;28;20471;-82
2021/12/11 12:55:05;;;;;;;5.30;4.60;;;19.20;51.70;;;;;;5014949;28;20487;-82
2021/12/11 12:57:34;;;;;;;5.30;4.50;;;19.50;52.00;;;;;;5018779;28;20521;-82